Airfield :







YOU CAN JOIN US ON...

 
LOGIN :

Register | Disclaimer

   EN    FR    IT 

 









Legend :    VFR   Marginal VFR   IFR   Intensive IFR   Very Intensive IFR
Visi :
Ceiling :
>= 8 km
>= 3000ft
5 to 8 km
1000 to 3000 ft
1500m to 5 km
500 to 1000 ft
800 to 1500m
200 to 500 ft
< 800m
< 200 ft
Symbols :   Thunderstorms  Fog  Heavy snow  Heavy precipitations  Wind > 20 kt






- Airport Elevation : 36 ft
- IATA code : PTP


TFFR - Le Raizet

CURRENT METAR :
  • 080200Z AUTO 13003KT 9999 SCT017/// BKN027/// BKN040/// 26/25 Q1016 TEMPO 3000 SHRA BKN020TCU

EXPIRED METARs :
  • 080130Z AUTO 12004KT 060V160 9999 SCT017/// SCT027/// BKN033/// 26/25 Q1015 TEMPO 3000 SHRA BKN020TCU
  • 080100Z AUTO 10004KT 9999 FEW019/// 26/25 Q1015 TEMPO 3000 SHRA BKN020TCU
  • 080030Z AUTO 10003KT 9999 FEW021/// 26/25 Q1015 TEMPO 3000 SHRA BKN020TCU
  • 080000Z AUTO 12004KT 090V160 9999 FEW016/// SCT031/// BKN040/// 27/25 Q1015 TEMPO 3000 SHRA BKN020TCU
  • 072330Z AUTO 10004KT 9999 FEW034/// SCT052/// 27/26 Q1014 TEMPO 4000 SHRA BKN018TCU

TAF TAF TFFR
Valid from the 08 at 00:00 until the 09 at 00:00 UTC


072300Z 0800/0824 13005KT 9999 SCT030 BKN050
TEMPO 0800/0811 3000 SHRA BKN020TCU
FM081200 12010KT 9999 SCT035
PROB40
TEMPO 0815/0821 12015G25KT
TTZP FIR / North America



MET'MAP, your aeronautical weather chart ! - Copyright ORBIFLY December 2007 - Disclaimer

ORBIFLY MET'MAP TEAM :

Programming & Development : Alexandra Zaïnal
Concept & original design : Baudouin d'Aumeries
Assistance for programming : Marc-Olivier Méhu
Technical & hardware support : Manuel Goepfert

Contact : metmap@orbifly.com




SOURCES & CREDITS :

   NOAA